createdAt,value
2018-06-21T00:00:37.832Z,0.00
2018-06-21T00:01:38.000Z,0.00
2018-06-21T00:02:38.169Z,0.00
2018-06-21T00:03:38.337Z,0.00
2018-06-21T00:04:38.515Z,0.00
2018-06-21T00:05:38.680Z,0.00
2018-06-21T00:08:21.247Z,0.00
2018-06-21T00:09:21.411Z,0.00
2018-06-21T00:10:21.587Z,0.00
2018-06-21T00:11:21.752Z,0.00
2018-06-21T00:12:21.936Z,0.00
2018-06-21T00:13:22.102Z,0.00
2018-06-21T00:14:22.273Z,0.00
2018-06-21T00:15:22.439Z,0.00
2018-06-21T00:16:22.606Z,0.00
2018-06-21T00:17:22.774Z,0.00
2018-06-21T00:18:22.942Z,0.00
2018-06-21T00:19:23.102Z,0.00
2018-06-21T00:20:23.269Z,0.00
2018-06-21T00:21:23.442Z,0.00
2018-06-21T00:22:23.606Z,0.00
2018-06-21T00:25:05.881Z,0.00
2018-06-21T00:26:06.055Z,0.00
2018-06-21T00:27:06.223Z,0.00
2018-06-21T00:28:06.390Z,0.00
2018-06-21T00:29:06.557Z,0.00
2018-06-21T00:30:06.722Z,0.00
2018-06-21T00:31:06.893Z,0.00
2018-06-21T00:32:07.056Z,0.00
2018-06-21T00:33:07.226Z,0.00
2018-06-21T00:34:07.396Z,0.00
2018-06-21T00:36:49.693Z,0.00
2018-06-21T00:37:49.861Z,0.00
2018-06-21T00:38:50.031Z,0.00
2018-06-21T00:39:50.198Z,0.00
2018-06-21T00:40:50.374Z,0.00
2018-06-21T00:41:50.538Z,0.00
2018-06-21T00:42:50.707Z,0.00
2018-06-21T00:43:50.877Z,0.00
2018-06-21T00:44:51.044Z,0.00
2018-06-21T00:45:51.223Z,0.00
2018-06-21T00:46:51.395Z,0.00
2018-06-21T00:47:51.563Z,0.00
2018-06-21T00:48:51.742Z,0.00
2018-06-21T00:49:51.906Z,0.00
2018-06-21T00:50:52.076Z,0.00
2018-06-21T01:13:03.491Z,0.00
2018-06-21T01:14:03.183Z,0.00
2018-06-21T01:15:03.338Z,0.00
2018-06-21T01:16:03.493Z,0.00
2018-06-21T01:17:03.668Z,0.00
2018-06-21T01:18:03.837Z,0.00
2018-06-21T01:19:04.009Z,0.00
2018-06-21T01:20:04.179Z,0.00
2018-06-21T01:21:04.342Z,0.00
2018-06-21T01:22:04.515Z,0.00
2018-06-21T01:23:04.678Z,0.00
2018-06-21T01:24:04.865Z,0.00
2018-06-21T01:25:05.035Z,0.00
2018-06-21T01:26:05.188Z,0.00
2018-06-21T01:27:05.373Z,0.00
2018-06-21T01:29:47.642Z,0.00
2018-06-21T01:30:47.809Z,0.00
2018-06-21T01:31:47.981Z,0.00
2018-06-21T01:32:48.159Z,0.00
2018-06-21T01:33:48.332Z,0.00
2018-06-21T01:34:48.489Z,0.00
2018-06-21T01:35:48.652Z,0.00
2018-06-21T01:36:48.817Z,0.00
2018-06-21T01:37:49.009Z,0.00
2018-06-21T01:38:49.171Z,0.00
2018-06-21T01:39:49.342Z,0.00
2018-06-21T01:40:49.515Z,0.00
2018-06-21T01:41:49.674Z,0.00
2018-06-21T01:42:49.864Z,0.00
2018-06-21T01:43:50.031Z,0.00
2018-06-21T01:46:32.603Z,0.00
2018-06-21T01:47:32.762Z,0.00
2018-06-21T01:48:32.933Z,0.00
2018-06-21T01:49:33.107Z,0.00
2018-06-21T01:50:33.259Z,0.00
2018-06-21T01:51:33.442Z,0.00
2018-06-21T01:52:33.610Z,0.00
2018-06-21T01:53:33.779Z,0.00
2018-06-21T01:54:33.943Z,0.00
2018-06-21T01:55:34.111Z,0.00
2018-06-21T01:56:34.281Z,0.00
2018-06-21T01:57:34.448Z,0.00
2018-06-21T01:58:34.619Z,0.00
2018-06-21T01:59:34.788Z,0.00
2018-06-21T02:00:34.971Z,0.00
2018-06-21T02:03:17.227Z,0.00
2018-06-21T02:04:17.388Z,0.00
2018-06-21T02:05:17.567Z,0.00
2018-06-21T02:06:17.728Z,0.00
2018-06-21T02:07:17.898Z,0.00
2018-06-21T02:08:18.071Z,0.00
2018-06-21T02:09:18.238Z,0.00
2018-06-21T02:10:18.404Z,0.00
2018-06-21T02:11:18.572Z,0.00
2018-06-21T02:12:18.739Z,0.00
2018-06-21T02:13:18.893Z,0.00
2018-06-21T02:14:19.081Z,0.00
2018-06-21T02:15:19.248Z,0.00
2018-06-21T02:16:19.420Z,0.00
2018-06-21T02:17:19.585Z,0.00
2018-06-21T02:23:10.206Z,0.00
2018-06-21T02:24:10.379Z,0.00
2018-06-21T02:25:10.557Z,0.00
2018-06-21T02:26:10.720Z,0.00
2018-06-21T02:27:10.893Z,0.00
2018-06-21T02:28:11.061Z,0.00
2018-06-21T02:29:11.227Z,0.00
2018-06-21T02:30:11.401Z,0.00
2018-06-21T02:31:11.568Z,0.00
2018-06-21T02:32:11.739Z,0.00
2018-06-21T02:33:11.901Z,0.00
2018-06-21T02:34:12.110Z,0.00
2018-06-21T02:35:12.242Z,0.00
2018-06-21T02:36:12.400Z,0.00
2018-06-21T02:37:12.567Z,0.00
2018-06-21T02:39:55.122Z,0.00
2018-06-21T02:40:55.290Z,0.00
2018-06-21T02:41:55.462Z,0.00
2018-06-21T02:42:55.627Z,0.00
2018-06-21T02:43:55.795Z,0.00
2018-06-21T02:44:55.962Z,0.00
2018-06-21T02:45:56.138Z,0.00
2018-06-21T02:46:56.306Z,0.00
2018-06-21T02:47:57.372Z,0.00
2018-06-21T02:48:56.668Z,0.00
2018-06-21T02:49:56.841Z,0.00
2018-06-21T02:50:57.004Z,0.00
2018-06-21T02:51:57.179Z,0.00
2018-06-21T02:52:57.346Z,0.00
2018-06-21T02:53:57.520Z,0.00
2018-06-21T03:02:58.317Z,0.00
2018-06-21T03:03:58.418Z,0.00
2018-06-21T03:04:58.526Z,0.00
2018-06-21T03:05:58.692Z,0.00
2018-06-21T03:06:58.855Z,0.00
2018-06-21T03:07:59.021Z,0.00
2018-06-21T03:08:59.191Z,0.00
2018-06-21T03:09:59.356Z,0.00
2018-06-21T03:10:59.520Z,0.00
2018-06-21T03:11:59.695Z,0.00
2018-06-21T03:12:59.861Z,0.00
2018-06-21T03:14:00.040Z,0.00
2018-06-21T03:15:00.200Z,0.00
2018-06-21T03:16:00.374Z,0.00
2018-06-21T03:17:01.289Z,0.00
2018-06-21T03:19:43.101Z,0.00
2018-06-21T03:20:43.272Z,0.00
2018-06-21T03:21:43.443Z,0.00
2018-06-21T03:22:43.607Z,0.00
2018-06-21T03:23:43.771Z,0.00
2018-06-21T03:24:43.943Z,0.00
2018-06-21T03:25:44.109Z,0.00
2018-06-21T03:26:44.282Z,0.00
2018-06-21T03:27:44.445Z,0.00
2018-06-21T03:28:44.613Z,0.00
2018-06-21T03:31:26.882Z,0.00
2018-06-21T03:32:27.045Z,0.00
2018-06-21T03:33:27.213Z,0.00
2018-06-21T03:34:27.379Z,5.63
2018-06-21T03:35:27.577Z,5.63
2018-06-21T03:36:27.732Z,5.63
2018-06-21T03:37:27.895Z,5.63
2018-06-21T03:38:28.081Z,5.63
2018-06-21T03:39:28.238Z,5.63
2018-06-21T03:40:28.408Z,5.63
2018-06-21T03:43:10.959Z,5.63
2018-06-21T03:44:11.129Z,5.63
2018-06-21T03:45:11.307Z,11.25
2018-06-21T03:46:11.473Z,11.25
2018-06-21T03:47:11.639Z,11.25
2018-06-21T03:48:11.814Z,11.25
2018-06-21T03:49:11.990Z,11.25
2018-06-21T03:50:12.157Z,11.25
2018-06-21T03:51:12.324Z,11.25
2018-06-21T03:52:12.542Z,11.25
2018-06-21T03:54:55.054Z,11.25
2018-06-21T03:55:55.219Z,11.25
2018-06-21T03:56:55.388Z,11.25
2018-06-21T03:57:55.551Z,11.25
2018-06-21T03:58:55.720Z,11.25
2018-06-21T03:59:55.888Z,11.25
2018-06-21T04:00:56.051Z,11.25
2018-06-21T04:01:56.219Z,11.25
2018-06-21T04:02:56.386Z,11.25
2018-06-21T04:03:56.551Z,11.25
2018-06-21T04:06:38.831Z,16.88
2018-06-21T04:07:38.998Z,16.88
2018-06-21T04:08:39.165Z,16.88
2018-06-21T04:09:39.336Z,16.88
2018-06-21T04:10:39.506Z,16.88
2018-06-21T04:11:39.676Z,16.88
2018-06-21T04:12:39.837Z,16.88
2018-06-21T04:13:40.013Z,16.88
2018-06-21T04:14:40.176Z,16.88
2018-06-21T04:15:40.343Z,16.88
2018-06-21T04:16:40.505Z,16.88
2018-06-21T04:17:40.670Z,16.88
2018-06-21T04:18:40.831Z,16.88
2018-06-21T04:19:41.014Z,16.88
2018-06-21T04:20:41.172Z,16.88
2018-06-21T04:23:23.444Z,22.50
2018-06-21T04:24:23.615Z,22.50
2018-06-21T04:25:23.788Z,22.50
2018-06-21T04:26:23.957Z,16.88
2018-06-21T04:27:24.127Z,22.50
2018-06-21T04:28:24.290Z,22.50
2018-06-21T04:29:24.473Z,22.50
2018-06-21T04:30:32.083Z,22.50
2018-06-21T04:31:24.859Z,22.50
2018-06-21T04:32:25.066Z,22.50
2018-06-21T04:33:25.188Z,28.13
2018-06-21T04:34:25.356Z,22.50
2018-06-21T04:35:25.523Z,28.13
2018-06-21T04:36:25.697Z,28.13
2018-06-21T04:37:25.869Z,28.13
2018-06-21T04:38:26.135Z,28.13
2018-06-21T04:39:26.215Z,28.13
2018-06-21T04:40:26.432Z,28.13
2018-06-21T04:41:26.541Z,28.13
2018-06-21T04:42:26.709Z,28.13
2018-06-21T04:43:26.878Z,33.75
2018-06-21T04:44:27.039Z,33.75
2018-06-21T04:47:09.309Z,33.75
2018-06-21T04:48:09.478Z,33.75
2018-06-21T04:49:09.654Z,33.75
2018-06-21T04:50:09.824Z,39.38
2018-06-21T04:51:09.992Z,39.38
2018-06-21T04:52:17.332Z,39.38
2018-06-21T04:53:10.372Z,39.38
2018-06-21T04:54:10.549Z,45.00
2018-06-21T04:55:10.712Z,45.00
2018-06-21T04:56:10.880Z,50.63
2018-06-21T04:57:11.043Z,61.88
2018-06-21T04:58:18.405Z,61.88
2018-06-21T04:59:11.314Z,56.25
2018-06-21T05:00:11.473Z,50.63
2018-06-21T05:01:11.638Z,50.63
2018-06-21T05:02:11.810Z,50.63
2018-06-21T05:03:11.979Z,56.25
2018-06-21T05:04:12.145Z,56.25
2018-06-21T05:05:13.895Z,50.63
2018-06-21T05:06:12.434Z,56.25
2018-06-21T05:07:14.387Z,56.25
2018-06-21T05:08:12.816Z,56.25
2018-06-21T05:09:12.976Z,56.25
2018-06-21T05:10:13.161Z,61.88
2018-06-21T05:11:13.313Z,61.88
2018-06-21T05:12:21.430Z,61.88
2018-06-21T05:13:13.600Z,61.88
2018-06-21T05:14:13.765Z,67.50
2018-06-21T05:15:13.941Z,67.50
2018-06-21T05:16:15.905Z,67.50
2018-06-21T05:17:14.338Z,67.50
2018-06-21T05:18:14.532Z,67.50
2018-06-21T05:19:14.674Z,73.13
2018-06-21T05:20:14.861Z,73.13
2018-06-21T05:21:15.041Z,73.13
2018-06-21T05:22:15.203Z,73.13
2018-06-21T05:23:15.370Z,73.13
2018-06-21T05:24:15.540Z,73.13
2018-06-21T05:25:15.711Z,78.75
2018-06-21T05:26:15.876Z,73.13
2018-06-21T05:27:16.044Z,78.75
2018-06-21T05:29:59.617Z,78.75
2018-06-21T05:30:59.785Z,78.75
2018-06-21T05:31:59.965Z,78.75
2018-06-21T05:33:00.173Z,84.38
2018-06-21T05:34:00.301Z,84.38
2018-06-21T05:35:00.446Z,90.00
2018-06-21T05:36:00.611Z,95.63
2018-06-21T05:37:00.781Z,106.88
2018-06-21T05:38:00.943Z,106.88
2018-06-21T05:39:01.108Z,106.88
2018-06-21T05:40:01.287Z,112.50
2018-06-21T05:41:01.456Z,118.13
2018-06-21T05:42:01.609Z,129.38
2018-06-21T05:43:01.777Z,135.00
2018-06-21T05:44:01.959Z,50.63
2018-06-21T05:46:34.233Z,213.75
2018-06-21T05:47:34.406Z,101.25
2018-06-21T05:48:34.579Z,168.75
2018-06-21T05:49:34.750Z,50.63
2018-06-21T05:50:34.924Z,146.25
2018-06-21T05:51:35.090Z,45.00
2018-06-21T05:52:35.260Z,157.50
2018-06-21T05:53:35.424Z,50.63
2018-06-21T05:54:36.261Z,196.88
2018-06-21T05:55:35.804Z,129.38
2018-06-21T05:56:36.055Z,78.75
2018-06-21T05:57:36.146Z,61.88
2018-06-21T05:58:36.315Z,50.63
2018-06-21T05:59:36.483Z,225.00
2018-06-21T06:00:36.652Z,247.50
2018-06-21T06:03:18.923Z,67.50
2018-06-21T06:04:19.094Z,213.75
2018-06-21T06:05:19.270Z,196.88
2018-06-21T06:06:19.435Z,151.88
2018-06-21T06:07:19.610Z,191.25
2018-06-21T06:08:19.845Z,185.63
2018-06-21T06:09:19.937Z,185.63
2018-06-21T06:10:20.111Z,185.63
2018-06-21T06:11:20.282Z,180.00
2018-06-21T06:12:20.463Z,151.88
2018-06-21T06:15:02.718Z,174.38
2018-06-21T06:16:02.888Z,157.50
2018-06-21T06:17:03.079Z,157.50
2018-06-21T06:18:03.226Z,174.38
2018-06-21T06:19:03.402Z,135.00
2018-06-21T06:20:03.623Z,151.88
2018-06-21T06:21:11.694Z,135.00
2018-06-21T06:22:03.865Z,168.75
2018-06-21T06:23:04.056Z,163.13
2018-06-21T06:24:11.381Z,78.75
2018-06-21T06:25:04.415Z,73.13
2018-06-21T06:26:04.603Z,73.13
2018-06-21T06:27:04.783Z,174.38
2018-06-21T06:28:04.940Z,140.63
2018-06-21T06:29:05.098Z,67.50
2018-06-21T06:30:05.330Z,129.38
2018-06-21T06:31:05.472Z,84.38
2018-06-21T06:32:05.624Z,73.13
2018-06-21T06:33:05.798Z,151.88
2018-06-21T06:34:05.976Z,146.25
2018-06-21T06:41:26.663Z,174.38
2018-06-21T06:42:26.843Z,168.75
2018-06-21T06:43:27.043Z,174.38
2018-06-21T06:44:27.216Z,168.75
2018-06-21T06:45:27.371Z,180.00
2018-06-21T06:46:27.544Z,191.25
2018-06-21T06:47:27.712Z,196.88
2018-06-21T06:48:27.880Z,95.63
2018-06-21T06:49:28.098Z,90.00
2018-06-21T06:50:28.245Z,84.38
2018-06-21T06:51:36.099Z,90.00
2018-06-21T06:52:28.633Z,67.50
2018-06-21T06:53:28.807Z,90.00
2018-06-21T06:54:29.009Z,73.13
2018-06-21T06:55:29.136Z,106.88
2018-06-21T06:56:29.305Z,135.00
2018-06-21T06:57:36.941Z,78.75
2018-06-21T06:58:29.593Z,129.38
2018-06-21T06:59:29.767Z,135.00
2018-06-21T07:00:29.943Z,118.13
2018-06-21T07:01:30.119Z,73.13
2018-06-21T07:02:30.289Z,118.13
2018-06-21T07:03:30.457Z,129.38
2018-06-21T07:04:30.615Z,90.00
2018-06-21T07:05:30.780Z,101.25
2018-06-21T07:06:30.952Z,84.38
2018-06-21T07:07:32.055Z,73.13
2018-06-21T07:08:31.321Z,95.63
2018-06-21T07:09:31.437Z,78.75
2018-06-21T07:10:31.606Z,90.00
2018-06-21T07:11:31.777Z,73.13
2018-06-21T07:14:14.195Z,78.75
2018-06-21T07:15:14.164Z,67.50
2018-06-21T07:16:14.335Z,78.75
2018-06-21T07:17:14.516Z,90.00
2018-06-21T07:18:14.690Z,140.63
2018-06-21T07:19:14.859Z,157.50
2018-06-21T07:20:15.094Z,118.13
2018-06-21T07:21:16.087Z,118.13
2018-06-21T07:22:22.537Z,151.88
2018-06-21T07:23:15.582Z,163.13
2018-06-21T07:24:15.774Z,168.75
2018-06-21T07:25:23.104Z,185.63
2018-06-21T07:26:16.145Z,174.38
2018-06-21T07:27:16.343Z,168.75
2018-06-21T07:28:47.507Z,157.50
2018-06-21T07:29:16.715Z,180.00
2018-06-21T07:30:16.890Z,202.50
2018-06-21T07:31:17.059Z,174.38
2018-06-21T07:32:17.243Z,157.50
2018-06-21T07:33:17.390Z,185.63
2018-06-21T07:34:18.131Z,146.25
2018-06-21T07:35:17.713Z,168.75
2018-06-21T07:36:17.868Z,157.50
2018-06-21T07:37:18.634Z,196.88
2018-06-21T07:38:18.173Z,146.25
2018-06-21T07:39:18.344Z,135.00
2018-06-21T07:42:00.682Z,106.88
2018-06-21T07:43:00.844Z,101.25
2018-06-21T07:44:01.011Z,118.13
2018-06-21T07:45:01.177Z,101.25
2018-06-21T07:46:01.338Z,112.50
2018-06-21T07:47:01.522Z,129.38
2018-06-21T07:48:01.681Z,163.13
2018-06-21T07:49:01.858Z,168.75
2018-06-21T07:50:02.029Z,135.00
2018-06-21T07:51:02.187Z,180.00
2018-06-21T07:52:02.369Z,180.00
2018-06-21T07:53:02.546Z,168.75
2018-06-21T07:54:02.716Z,185.63
2018-06-21T07:55:10.548Z,168.75
2018-06-21T07:56:03.088Z,112.50
2018-06-21T07:57:03.259Z,129.38
2018-06-21T07:58:03.416Z,157.50
2018-06-21T07:59:03.665Z,174.38
2018-06-21T08:00:03.783Z,151.88
2018-06-21T08:01:03.959Z,157.50
2018-06-21T08:02:04.135Z,174.38
2018-06-21T08:03:04.298Z,185.63
2018-06-21T08:04:06.160Z,151.88
2018-06-21T08:05:04.589Z,146.25
2018-06-21T08:06:04.760Z,118.13
2018-06-21T08:07:05.670Z,146.25
2018-06-21T08:08:05.091Z,129.38
2018-06-21T08:09:05.253Z,157.50
2018-06-21T08:11:47.838Z,135.00
2018-06-21T08:12:48.016Z,140.63
2018-06-21T08:13:48.178Z,151.88
2018-06-21T08:14:48.343Z,140.63
2018-06-21T08:15:48.521Z,112.50
2018-06-21T08:16:48.693Z,112.50
2018-06-21T08:17:48.860Z,84.38
2018-06-21T08:18:49.027Z,118.13
2018-06-21T08:19:49.201Z,118.13
2018-06-21T08:20:49.371Z,140.63
2018-06-21T08:21:57.201Z,135.00
2018-06-21T08:22:49.739Z,123.75
2018-06-21T08:23:49.910Z,129.38
2018-06-21T08:24:50.085Z,146.25
2018-06-21T08:25:50.251Z,146.25
2018-06-21T08:26:57.874Z,180.00
2018-06-21T08:27:50.547Z,146.25
2018-06-21T08:28:50.755Z,146.25
2018-06-21T08:29:50.888Z,123.75
2018-06-21T08:30:51.062Z,123.75
2018-06-21T08:31:51.235Z,118.13
2018-06-21T08:32:51.407Z,106.88
2018-06-21T08:33:51.575Z,129.38
2018-06-21T08:34:51.743Z,146.25
2018-06-21T08:35:51.911Z,157.50
2018-06-21T08:36:52.082Z,123.75
2018-06-21T08:37:52.280Z,112.50
2018-06-21T08:38:53.160Z,112.50
2018-06-21T08:39:52.541Z,95.63
2018-06-21T08:40:52.731Z,95.63
2018-06-21T08:43:26.028Z,78.75
2018-06-21T08:44:25.197Z,90.00
2018-06-21T08:45:25.396Z,112.50
2018-06-21T08:46:25.541Z,73.13
2018-06-21T08:47:25.721Z,101.25
2018-06-21T08:50:08.276Z,78.75
2018-06-21T08:51:08.441Z,73.13
2018-06-21T08:52:08.735Z,67.50
2018-06-21T08:53:08.802Z,73.13
2018-06-21T08:54:09.001Z,84.38
2018-06-21T08:55:09.165Z,78.75
2018-06-21T08:56:09.344Z,78.75
2018-06-21T08:57:09.513Z,84.38
2018-06-21T08:58:10.527Z,90.00
2018-06-21T08:59:09.819Z,67.50
2018-06-21T09:00:09.994Z,78.75
2018-06-21T09:01:10.176Z,67.50
2018-06-21T09:02:10.335Z,50.63
2018-06-21T09:03:11.013Z,45.00
2018-06-21T09:04:10.695Z,45.00
2018-06-21T09:06:52.976Z,28.13
2018-06-21T09:07:53.145Z,22.50
2018-06-21T09:08:53.304Z,22.50
2018-06-21T09:09:53.485Z,22.50
2018-06-21T09:10:53.657Z,16.88
2018-06-21T09:11:53.828Z,16.88
2018-06-21T09:12:54.000Z,16.88
2018-06-21T09:13:54.170Z,16.88
2018-06-21T09:14:54.351Z,16.88
2018-06-21T09:15:54.523Z,11.25
2018-06-21T09:16:54.715Z,11.25
2018-06-21T09:17:54.898Z,16.88
2018-06-21T09:18:55.995Z,16.88
2018-06-21T09:19:55.301Z,22.50
2018-06-21T09:20:55.476Z,33.75
2018-06-21T09:23:27.748Z,56.25
2018-06-21T09:24:27.933Z,67.50
2018-06-21T09:25:28.111Z,73.13
2018-06-21T09:26:28.263Z,78.75
2018-06-21T09:27:28.432Z,73.13
2018-06-21T09:28:28.613Z,78.75
2018-06-21T09:29:28.781Z,78.75
2018-06-21T09:30:28.952Z,140.63
2018-06-21T09:31:36.584Z,95.63
2018-06-21T09:32:29.250Z,95.63
2018-06-21T09:33:29.422Z,135.00
2018-06-21T09:34:29.579Z,112.50
2018-06-21T09:35:29.750Z,118.13
2018-06-21T09:36:29.919Z,135.00
2018-06-21T09:37:30.097Z,135.00
2018-06-21T09:38:30.261Z,90.00
2018-06-21T09:39:30.427Z,123.75
2018-06-21T09:40:30.599Z,78.75
2018-06-21T09:43:02.922Z,45.00
2018-06-21T09:44:04.357Z,45.00
2018-06-21T09:45:03.267Z,45.00
2018-06-21T09:46:03.437Z,50.63
2018-06-21T09:47:03.617Z,45.00
2018-06-21T09:48:03.781Z,45.00
2018-06-21T09:49:03.952Z,45.00
2018-06-21T09:50:04.110Z,50.63
2018-06-21T09:51:04.294Z,50.63
2018-06-21T09:52:11.913Z,50.63
2018-06-21T09:53:04.626Z,56.25
2018-06-21T09:54:04.792Z,50.63
2018-06-21T09:55:04.955Z,61.88
2018-06-21T09:56:07.923Z,67.50
2018-06-21T09:57:05.338Z,78.75
2018-06-21T09:58:05.515Z,78.75
2018-06-21T09:59:05.680Z,73.13
2018-06-21T10:00:05.850Z,67.50
2018-06-21T10:01:06.022Z,61.88
2018-06-21T10:02:06.191Z,56.25
2018-06-21T10:03:06.364Z,45.00
2018-06-21T10:04:08.433Z,45.00
2018-06-21T10:05:06.729Z,45.00
2018-06-21T10:06:08.427Z,45.00
2018-06-21T10:08:49.220Z,50.63
2018-06-21T10:09:50.245Z,56.25
2018-06-21T10:10:49.543Z,56.25
2018-06-21T10:11:49.704Z,56.25
2018-06-21T10:12:49.881Z,50.63
2018-06-21T10:13:50.047Z,45.00
2018-06-21T10:14:50.214Z,39.38
2018-06-21T10:15:50.423Z,33.75
2018-06-21T10:16:50.554Z,22.50
2018-06-21T10:17:50.720Z,16.88
2018-06-21T10:20:33.081Z,16.88
2018-06-21T10:21:33.153Z,16.88
2018-06-21T10:22:33.716Z,16.88
2018-06-21T10:23:33.486Z,11.25
2018-06-21T10:24:42.050Z,11.25
2018-06-21T10:25:33.978Z,11.25
2018-06-21T10:26:33.967Z,11.25
2018-06-21T10:27:46.084Z,11.25
2018-06-21T10:28:34.371Z,16.88
2018-06-21T10:29:34.543Z,22.50
2018-06-21T10:30:43.041Z,28.13
2018-06-21T10:31:34.822Z,39.38
2018-06-21T10:32:35.018Z,50.63
2018-06-21T10:33:35.186Z,50.63
2018-06-21T10:34:35.364Z,50.63
2018-06-21T10:35:35.528Z,45.00
2018-06-21T10:36:35.699Z,50.63
2018-06-21T10:37:35.867Z,50.63
2018-06-21T10:38:36.041Z,50.63
2018-06-21T10:39:36.221Z,50.63
2018-06-21T10:40:36.420Z,50.63
2018-06-21T10:41:36.622Z,50.63
2018-06-21T10:42:36.844Z,45.00
2018-06-21T10:43:36.941Z,45.00
2018-06-21T10:44:37.111Z,45.00
2018-06-21T10:45:45.569Z,39.38
2018-06-21T10:46:37.451Z,39.38
2018-06-21T10:47:38.605Z,39.38
2018-06-21T10:48:37.779Z,33.75
2018-06-21T10:49:37.951Z,39.38
2018-06-21T10:50:38.126Z,39.38
2018-06-21T10:51:42.121Z,39.38
2018-06-21T10:52:46.036Z,39.38
2018-06-21T10:53:38.758Z,39.38
2018-06-21T10:54:38.943Z,39.38
2018-06-21T10:55:39.109Z,45.00
2018-06-21T10:56:39.364Z,50.63
2018-06-21T10:57:39.825Z,56.25
2018-06-21T10:58:42.200Z,67.50
2018-06-21T10:59:39.753Z,73.13
2018-06-21T11:00:39.934Z,73.13
2018-06-21T11:01:40.089Z,84.38
2018-06-21T11:02:40.254Z,90.00
2018-06-21T11:03:41.150Z,157.50
2018-06-21T11:04:40.570Z,151.88
2018-06-21T11:05:40.672Z,151.88
2018-06-21T11:06:41.568Z,129.38
2018-06-21T11:09:23.216Z,129.38
2018-06-21T11:10:24.201Z,112.50
2018-06-21T11:11:23.508Z,106.88
2018-06-21T11:12:24.209Z,106.88
2018-06-21T11:13:31.547Z,101.25
2018-06-21T11:14:24.085Z,90.00
2018-06-21T11:15:24.254Z,84.38
2018-06-21T11:16:24.441Z,84.38
2018-06-21T11:17:24.612Z,78.75
2018-06-21T11:18:24.774Z,78.75
2018-06-21T11:19:24.942Z,84.38
2018-06-21T11:20:25.112Z,84.38
2018-06-21T11:21:25.313Z,84.38
2018-06-21T11:22:25.468Z,84.38
2018-06-21T11:23:26.148Z,90.00
2018-06-21T11:24:33.520Z,78.75
2018-06-21T11:25:25.957Z,78.75
2018-06-21T11:26:26.109Z,78.75
2018-06-21T11:27:26.277Z,78.75
2018-06-21T11:28:26.456Z,78.75
2018-06-21T11:29:26.623Z,78.75
2018-06-21T11:30:26.809Z,78.75
2018-06-21T11:31:27.741Z,73.13
2018-06-21T11:32:27.159Z,101.25
2018-06-21T11:33:27.330Z,95.63
2018-06-21T11:34:35.463Z,84.38
2018-06-21T11:35:27.635Z,118.13
2018-06-21T11:36:27.803Z,90.00
2018-06-21T11:37:27.971Z,129.38
2018-06-21T11:38:28.211Z,118.13
2018-06-21T11:39:28.321Z,135.00
2018-06-21T11:40:30.255Z,106.88
2018-06-21T11:41:30.250Z,112.50
2018-06-21T11:42:36.014Z,112.50
2018-06-21T11:43:29.916Z,129.38
2018-06-21T11:44:29.155Z,118.13
2018-06-21T11:45:30.280Z,123.75
2018-06-21T11:46:29.450Z,118.13
2018-06-21T11:47:29.622Z,118.13
2018-06-21T11:48:29.796Z,118.13
2018-06-21T11:49:30.787Z,118.13
2018-06-21T11:50:38.048Z,118.13
2018-06-21T11:51:30.207Z,118.13
2018-06-21T11:52:30.381Z,123.75
2018-06-21T11:53:30.546Z,123.75
2018-06-21T11:54:30.726Z,56.25
2018-06-21T11:55:30.909Z,61.88
2018-06-21T11:56:31.047Z,67.50
2018-06-21T11:57:31.217Z,118.13
2018-06-21T11:58:31.388Z,84.38
2018-06-21T11:59:31.556Z,129.38
2018-06-21T12:00:31.726Z,67.50
2018-06-21T12:01:31.893Z,129.38
2018-06-21T12:02:32.081Z,78.75
2018-06-21T12:03:32.236Z,123.75
2018-06-21T12:04:40.392Z,123.75
2018-06-21T12:05:32.550Z,118.13
2018-06-21T12:06:32.721Z,106.88
2018-06-21T12:07:33.846Z,118.13
2018-06-21T12:08:33.017Z,112.50
2018-06-21T12:09:33.182Z,112.50
2018-06-21T12:10:34.353Z,112.50
2018-06-21T12:11:33.536Z,112.50
2018-06-21T12:12:33.703Z,106.88
2018-06-21T12:13:33.875Z,101.25
2018-06-21T12:14:34.044Z,106.88
2018-06-21T12:17:18.869Z,112.50
2018-06-21T12:18:17.781Z,118.13
2018-06-21T12:19:17.990Z,61.88
2018-06-21T12:20:18.166Z,118.13
2018-06-21T12:21:18.341Z,45.00
2018-06-21T12:22:18.508Z,56.25
2018-06-21T12:23:18.678Z,106.88
2018-06-21T12:24:26.507Z,135.00
2018-06-21T12:25:19.049Z,61.88
2018-06-21T12:26:19.272Z,56.25
2018-06-21T12:27:19.385Z,56.25
2018-06-21T12:28:27.038Z,56.25
2018-06-21T12:29:19.714Z,56.25
2018-06-21T12:30:19.872Z,61.88
2018-06-21T12:31:20.052Z,56.25
2018-06-21T12:32:20.217Z,61.88
2018-06-21T12:33:20.389Z,61.88
2018-06-21T12:34:20.569Z,61.88
2018-06-21T12:35:20.729Z,123.75
2018-06-21T12:36:20.918Z,118.13
2018-06-21T12:37:21.088Z,118.13
2018-06-21T12:38:21.273Z,112.50
2018-06-21T12:39:21.460Z,118.13
2018-06-21T12:40:21.617Z,118.13
2018-06-21T12:41:21.785Z,118.13
2018-06-21T12:42:21.977Z,101.25
2018-06-21T12:44:54.293Z,106.88
2018-06-21T12:45:54.473Z,95.63
2018-06-21T12:46:54.665Z,50.63
2018-06-21T12:47:54.827Z,90.00
2018-06-21T12:48:54.997Z,61.88
2018-06-21T12:49:55.173Z,50.63
2018-06-21T12:50:55.346Z,50.63
2018-06-21T12:51:55.520Z,106.88
2018-06-21T12:52:55.687Z,112.50
2018-06-21T12:53:55.877Z,106.88
2018-06-21T12:56:28.320Z,123.75
2018-06-21T12:57:28.279Z,123.75
2018-06-21T12:58:28.451Z,123.75
2018-06-21T12:59:28.613Z,56.25
2018-06-21T13:00:28.779Z,56.25
2018-06-21T13:01:28.950Z,67.50
2018-06-21T13:02:29.117Z,67.50
2018-06-21T13:03:29.288Z,123.75
2018-06-21T13:04:29.453Z,95.63
2018-06-21T13:05:29.661Z,90.00
2018-06-21T13:08:01.929Z,101.25
2018-06-21T13:09:02.100Z,101.25
2018-06-21T13:10:02.295Z,106.88
2018-06-21T13:11:04.446Z,90.00
2018-06-21T13:12:02.614Z,101.25
2018-06-21T13:13:02.789Z,101.25
2018-06-21T13:14:02.960Z,101.25
2018-06-21T13:15:03.133Z,106.88
2018-06-21T13:16:03.291Z,112.50
2018-06-21T13:17:03.453Z,95.63
2018-06-21T13:18:03.625Z,95.63
2018-06-21T13:19:03.801Z,135.00
2018-06-21T13:20:03.969Z,101.25
2018-06-21T13:21:04.150Z,101.25
2018-06-21T13:22:12.031Z,84.38
2018-06-21T13:23:04.518Z,106.88
2018-06-21T13:24:04.680Z,118.13
2018-06-21T13:25:13.508Z,112.50
2018-06-21T13:26:05.044Z,106.88
2018-06-21T13:27:05.211Z,106.88
2018-06-21T13:28:05.381Z,106.88
2018-06-21T13:29:05.555Z,106.88
2018-06-21T13:30:05.722Z,101.25
2018-06-21T13:31:05.895Z,101.25
2018-06-21T13:32:06.065Z,106.88
2018-06-21T13:33:06.233Z,106.88
2018-06-21T13:34:06.413Z,101.25
2018-06-21T13:35:06.597Z,106.88
2018-06-21T13:36:06.752Z,106.88
2018-06-21T13:37:06.962Z,101.25
2018-06-21T13:38:07.080Z,90.00
2018-06-21T13:39:07.251Z,106.88
2018-06-21T13:42:50.073Z,50.63
2018-06-21T13:43:50.138Z,112.50
2018-06-21T13:44:50.326Z,112.50
2018-06-21T13:45:50.494Z,112.50
2018-06-21T13:46:50.666Z,106.88
2018-06-21T13:47:50.837Z,106.88
2018-06-21T13:48:52.749Z,106.88
2018-06-21T13:49:59.135Z,112.50
2018-06-21T13:50:51.292Z,106.88
2018-06-21T13:51:51.502Z,106.88
2018-06-21T13:52:52.293Z,106.88
2018-06-21T13:53:51.860Z,106.88
2018-06-21T13:54:52.026Z,101.25
2018-06-21T13:55:52.184Z,101.25
2018-06-21T13:56:52.380Z,101.25
2018-06-21T13:57:52.554Z,101.25
2018-06-21T13:58:52.746Z,106.88
2018-06-21T13:59:52.920Z,101.25
2018-06-21T14:00:53.083Z,106.88
2018-06-21T14:01:53.280Z,118.13
2018-06-21T14:02:53.457Z,106.88
2018-06-21T14:03:53.661Z,84.38
2018-06-21T14:06:35.974Z,101.25
2018-06-21T14:07:36.226Z,101.25
2018-06-21T14:08:36.596Z,78.75
2018-06-21T14:11:08.138Z,45.00
2018-06-21T14:12:08.304Z,106.88
2018-06-21T14:13:08.491Z,73.13
2018-06-21T14:14:08.669Z,106.88
2018-06-21T14:15:08.869Z,106.88
2018-06-21T14:16:09.666Z,101.25
2018-06-21T14:17:09.201Z,101.25
2018-06-21T14:18:09.377Z,101.25
2018-06-21T14:19:09.569Z,45.00
2018-06-21T14:20:09.719Z,101.25
2018-06-21T14:21:09.907Z,84.38
2018-06-21T14:22:10.063Z,28.13
2018-06-21T14:23:10.229Z,101.25
2018-06-21T14:24:10.399Z,50.63
2018-06-21T14:25:10.569Z,73.13
2018-06-21T14:27:43.891Z,101.25
2018-06-21T14:28:43.305Z,101.25
2018-06-21T14:29:43.480Z,106.88
2018-06-21T14:30:43.649Z,95.63
2018-06-21T14:31:46.355Z,101.25
2018-06-21T14:32:52.010Z,95.63
2018-06-21T14:33:44.068Z,95.63
2018-06-21T14:34:44.245Z,95.63